Glassville, Canada
Current Conditions -  °F | °C
As of 5:53 AM on Monday 26 Jan 2015 (Local Time) from KHUL Reporting Station
Clear Clear  
Wind Chill: -25°   Ceiling: Unl
Heat Index: -17°   Visibility: 10mi
Dew Point: -23°   Wind: 8mph
Humidity: 60%   Direction: 280°W
Pressure: 30"   Gusts: NA
Location:  46.48°N, 67.42°W
Report Text: KHUL 260953Z AUTO 28007KT 10SM CLR M17/M23 A3000 RMK AO2 SLP173 T11721233
Loading
Personal Weather Stations






























Interactive Weather Map New forecast layout! Learn more

10-Day Weather Forecast

Advertisements
Track Severe Weather on mobile